Time;durP1;ratioP1;P1;durP2;ratioP2;P2;SDS_P1;SDS_P2;PMS_P1;PMS_P2;Temp;Humidity;BMP_temperature;BMP_pressure;BME280_temperature;BME280_humidity;BME280_pressure;Samples;Min_cycle;Max_cycle;Signal;HPM_P1;HPM_P2
2021/04/01 00:01:59;;;;;;;34.90;17.25;;;14.10;64.70;;;;;;5078041;28;20035;-71
2021/04/01 00:04:25;;;;;;;37.13;17.58;;;14.00;64.70;;;;;;5077884;28;20036;-71
2021/04/01 00:06:51;;;;;;;33.38;15.40;;;14.00;64.80;;;;;;5077905;28;20309;-71
2021/04/01 00:09:16;;;;;;;37.95;16.40;;;14.00;64.80;;;;;;5077911;28;20032;-71
2021/04/01 00:11:42;;;;;;;34.95;14.32;;;13.90;65.10;;;;;;5077817;28;20025;-71
2021/04/01 00:14:08;;;;;;;27.52;13.48;;;13.90;65.20;;;;;;5077873;28;20047;-71
2021/04/01 00:16:35;;;;;;;30.17;13.23;;;13.80;65.00;;;;;;5077691;28;20023;-71
2021/04/01 00:19:02;;;;;;;25.17;12.57;;;13.70;64.60;;;;;;5077703;28;20035;-73
2021/04/01 00:21:28;;;;;;;23.80;12.32;;;13.70;64.50;;;;;;5077605;28;20024;-73
2021/04/01 00:23:54;;;;;;;28.88;12.65;;;13.70;64.70;;;;;;5077907;28;20028;-71
2021/04/01 00:26:21;;;;;;;27.85;12.68;;;13.60;64.70;;;;;;5077557;28;20040;-73
2021/04/01 00:28:47;;;;;;;26.00;13.20;;;13.50;64.80;;;;;;5059554;28;20041;-73
2021/04/01 00:31:12;;;;;;;25.83;13.27;;;13.50;65.00;;;;;;5077651;28;20051;-71
2021/04/01 00:33:38;;;;;;;25.20;12.18;;;13.50;65.40;;;;;;5077486;28;20094;-71
2021/04/01 00:36:05;;;;;;;37.72;13.40;;;13.40;65.10;;;;;;5059623;28;20020;-71
2021/04/01 00:38:30;;;;;;;30.52;13.38;;;13.30;65.20;;;;;;5077520;28;20024;-71
2021/04/01 00:40:56;;;;;;;27.05;12.68;;;13.30;65.20;;;;;;5077249;28;20070;-71
2021/04/01 00:43:22;;;;;;;25.80;13.55;;;13.20;65.30;;;;;;5076439;28;20048;-71
2021/04/01 00:45:47;;;;;;;25.90;12.52;;;13.20;65.60;;;;;;5059543;28;20371;-71
2021/04/01 00:48:13;;;;;;;22.33;12.60;;;13.30;65.50;;;;;;5059353;28;20031;-71
2021/04/01 00:50:39;;;;;;;22.45;12.50;;;13.40;65.50;;;;;;5077156;28;20444;-71
2021/04/01 00:53:05;;;;;;;27.58;13.32;;;13.40;65.00;;;;;;5077258;28;20044;-71
2021/04/01 00:55:30;;;;;;;24.92;13.02;;;13.50;64.70;;;;;;5077003;28;20068;-71
2021/04/01 00:58:01;;;;;;;26.00;12.40;;;13.60;64.70;;;;;;5077186;28;20111;-73
2021/04/01 01:00:32;;;;;;;25.08;11.90;;;13.50;64.50;;;;;;5077206;28;20075;-73
2021/04/01 01:02:58;;;;;;;25.60;12.40;;;13.50;64.80;;;;;;5076991;28;20028;-73
2021/04/01 01:05:25;;;;;;;25.70;12.95;;;13.50;64.60;;;;;;5076860;28;20031;-73
2021/04/01 01:07:51;;;;;;;29.75;14.20;;;13.50;64.90;;;;;;5076873;28;20025;-73
2021/04/01 01:10:26;;;;;;;32.17;14.85;;;13.50;64.80;;;;;;5076764;28;20042;-73
2021/04/01 01:12:52;;;;;;;38.75;15.55;;;13.40;64.80;;;;;;5076831;28;20486;-73
2021/04/01 01:15:18;;;;;;;32.08;14.88;;;13.30;65.50;;;;;;5076733;28;20059;-73
2021/04/01 01:17:43;;;;;;;30.58;13.95;;;13.30;65.80;;;;;;5076955;28;20427;-73
2021/04/01 01:20:10;;;;;;;27.92;12.93;;;13.40;65.80;;;;;;5076807;28;20027;-73
2021/04/01 01:22:41;;;;;;;27.75;13.55;;;13.40;65.80;;;;;;5076755;28;20023;-73
2021/04/01 01:25:11;;;;;;;31.33;13.30;;;13.40;65.40;;;;;;5076622;28;20447;-73
2021/04/01 01:27:38;;;;;;;28.63;13.80;;;13.50;64.90;;;;;;5076384;28;20048;-73
2021/04/01 01:30:11;;;;;;;26.52;11.73;;;13.40;65.20;;;;;;5076764;28;20028;-73
2021/04/01 01:32:38;;;;;;;29.63;11.80;;;13.50;64.70;;;;;;5076612;28;20040;-73
2021/04/01 01:35:14;;;;;;;23.10;11.82;;;13.50;65.00;;;;;;5076553;28;20025;-73
2021/04/01 01:37:52;;;;;;;22.95;10.75;;;13.50;63.70;;;;;;5076646;28;20016;-71
2021/04/01 01:40:19;;;;;;;28.48;11.70;;;13.60;63.70;;;;;;5076605;28;20024;-73
2021/04/01 01:42:46;;;;;;;20.80;11.23;;;13.50;64.00;;;;;;5076622;28;20085;-73
2021/04/01 01:45:12;;;;;;;19.27;10.85;;;13.50;64.40;;;;;;5076427;28;20081;-73
2021/04/01 01:47:38;;;;;;;35.70;10.60;;;13.40;63.40;;;;;;5076730;28;20091;-73
2021/04/01 01:50:05;;;;;;;19.67;10.35;;;13.40;63.70;;;;;;5076423;28;20033;-73
2021/04/01 01:52:30;;;;;;;26.20;11.27;;;13.30;64.20;;;;;;5076299;28;20017;-73
2021/04/01 01:54:56;;;;;;;26.85;11.57;;;13.30;64.30;;;;;;5078244;28;20051;-73
2021/04/01 01:57:22;;;;;;;25.10;11.73;;;13.20;64.30;;;;;;5080394;28;20028;-73
2021/04/01 01:59:47;;;;;;;23.42;11.50;;;13.20;64.20;;;;;;5080401;28;20035;-73
2021/04/01 02:02:13;;;;;;;21.25;11.23;;;13.10;64.70;;;;;;5080340;28;20048;-73
2021/04/01 02:04:39;;;;;;;26.58;11.48;;;13.00;65.20;;;;;;5080207;28;20016;-73
2021/04/01 02:07:04;;;;;;;32.40;13.07;;;13.00;65.80;;;;;;5080467;28;20021;-73
2021/04/01 02:09:30;;;;;;;32.20;13.80;;;13.00;66.20;;;;;;5080045;28;20079;-73
2021/04/01 02:11:57;;;;;;;33.47;15.32;;;13.00;67.00;;;;;;5080368;28;20027;-73
2021/04/01 02:14:23;;;;;;;36.00;15.63;;;13.00;67.40;;;;;;5079987;28;20032;-71
2021/04/01 02:16:48;;;;;;;36.83;16.00;;;12.90;66.90;;;;;;5079984;28;20104;-71
2021/04/01 02:19:14;;;;;;;25.48;13.35;;;13.10;66.90;;;;;;5079935;28;20029;-71
2021/04/01 02:21:40;;;;;;;30.02;12.80;;;13.30;66.00;;;;;;5080288;28;20058;-71
2021/04/01 02:24:06;;;;;;;27.25;13.27;;;13.30;65.40;;;;;;5080275;28;20414;-71
2021/04/01 02:26:32;;;;;;;28.17;13.73;;;13.30;65.20;;;;;;5079843;28;20098;-71
2021/04/01 02:28:58;;;;;;;31.65;12.88;;;13.30;66.20;;;;;;5061828;28;20048;-71
2021/04/01 02:31:24;;;;;;;29.95;13.02;;;13.20;66.00;;;;;;5079819;28;20051;-71
2021/04/01 02:33:52;;;;;;;30.52;13.38;;;13.10;66.30;;;;;;5079639;28;20021;-71
2021/04/01 02:36:18;;;;;;;35.40;14.70;;;13.10;66.50;;;;;;5079894;28;20048;-71
2021/04/01 02:38:44;;;;;;;28.65;13.40;;;13.10;66.60;;;;;;5079588;28;20025;-71
2021/04/01 02:41:10;;;;;;;29.38;12.98;;;13.10;66.60;;;;;;5079547;28;20119;-71
2021/04/01 02:43:36;;;;;;;23.58;13.10;;;13.10;66.30;;;;;;5079412;28;20048;-71
2021/04/01 02:46:04;;;;;;;25.20;13.10;;;13.10;66.30;;;;;;5061829;28;20198;-71
2021/04/01 02:48:29;;;;;;;27.63;11.95;;;13.00;66.10;;;;;;5061611;28;20068;-71
2021/04/01 02:50:55;;;;;;;25.27;11.75;;;13.00;65.20;;;;;;5079333;28;20060;-71
2021/04/01 02:53:21;;;;;;;23.23;10.60;;;13.00;65.40;;;;;;5079608;28;20021;-71
2021/04/01 02:55:47;;;;;;;19.58;10.00;;;13.00;65.10;;;;;;5079346;28;20028;-71
2021/04/01 02:58:13;;;;;;;29.65;13.85;;;12.90;65.00;;;;;;5079411;28;20027;-71
2021/04/01 03:00:39;;;;;;;27.27;13.38;;;13.00;65.70;;;;;;5079206;28;20409;-71
2021/04/01 03:05:39;;;;;;;28.35;14.30;;;13.10;64.80;;;;;;5079267;28;20039;-71
2021/04/01 03:08:05;;;;;;;23.48;10.88;;;13.20;65.40;;;;;;5078919;28;20421;-71
2021/04/01 03:10:31;;;;;;;26.33;12.02;;;13.20;65.30;;;;;;5078994;28;20124;-71
2021/04/01 03:12:57;;;;;;;29.63;14.45;;;13.10;65.50;;;;;;5079253;28;20051;-71
2021/04/01 03:15:23;;;;;;;28.80;15.05;;;13.00;66.40;;;;;;5078869;28;20032;-71
2021/04/01 03:17:48;;;;;;;21.45;11.25;;;13.10;67.00;;;;;;5078926;28;20317;-71
2021/04/01 03:20:14;;;;;;;24.25;11.52;;;13.10;65.50;;;;;;5061147;28;20032;-71
2021/04/01 03:22:41;;;;;;;26.95;12.00;;;13.00;65.40;;;;;;5061101;28;20031;-71
2021/04/01 03:25:10;;;;;;;23.17;12.35;;;13.00;66.10;;;;;;5078783;28;20033;-71
2021/04/01 03:27:36;;;;;;;26.35;12.65;;;12.90;66.00;;;;;;5078985;28;20037;-71
2021/04/01 03:30:11;;;;;;;28.40;11.75;;;12.90;66.40;;;;;;5078714;28;20033;-71
2021/04/01 03:32:40;;;;;;;20.90;11.10;;;12.90;66.40;;;;;;5079351;28;20309;-71
2021/04/01 03:35:08;;;;;;;32.60;12.45;;;12.90;65.70;;;;;;5078488;28;20021;-71
2021/04/01 03:37:34;;;;;;;28.77;12.63;;;13.00;65.20;;;;;;5078595;28;20024;-71
2021/04/01 03:40:00;;;;;;;23.88;11.43;;;13.10;63.90;;;;;;5078786;28;20031;-71
2021/04/01 03:42:26;;;;;;;29.08;11.73;;;13.20;63.80;;;;;;5078873;28;20029;-71
2021/04/01 03:44:54;;;;;;;24.05;10.52;;;13.30;63.90;;;;;;5078340;28;20060;-71
2021/04/01 03:47:20;;;;;;;22.65;11.23;;;13.40;63.30;;;;;;5078337;28;20021;-71
2021/04/01 03:49:45;;;;;;;26.23;8.65;;;13.40;63.20;;;;;;5078302;28;20024;-71
2021/04/01 03:52:11;;;;;;;21.55;9.57;;;13.40;61.30;;;;;;5078253;28;20066;-71
2021/04/01 03:54:37;;;;;;;19.20;9.80;;;13.50;61.30;;;;;;5060430;28;20060;-71
2021/04/01 03:57:03;;;;;;;22.83;11.00;;;13.70;60.90;;;;;;5078125;28;20050;-71
2021/04/01 03:59:40;;;;;;;25.20;10.57;;;14.00;60.00;;;;;;5078248;28;20031;-71
2021/04/01 04:02:33;;;;;;;26.52;11.32;;;14.30;59.80;;;;;;5078046;28;20029;-71
2021/04/01 04:15:25;;;;;;;23.27;11.52;;;14.10;62.80;;;;;;5077782;28;20051;-71
2021/04/01 04:17:51;;;;;;;26.65;11.50;;;14.00;61.00;;;;;;5077065;28;20021;-72
2021/04/01 04:20:18;;;;;;;28.17;11.32;;;14.00;60.90;;;;;;5077652;28;20038;-71
2021/04/01 04:22:44;;;;;;;24.17;10.00;;;14.00;60.30;;;;;;5077528;28;20048;-73
2021/04/01 04:25:11;;;;;;;26.88;11.40;;;14.00;59.90;;;;;;5077476;28;20060;-73
2021/04/01 04:30:23;;;;;;;19.08;9.68;;;14.00;60.50;;;;;;5077713;28;20058;-73
2021/04/01 04:32:49;;;;;;;21.83;11.55;;;13.90;60.50;;;;;;5077457;28;20023;-73
2021/04/01 04:35:15;;;;;;;27.13;11.85;;;13.80;61.10;;;;;;5077301;28;20095;-70
2021/04/01 04:37:40;;;;;;;23.75;10.98;;;13.80;61.10;;;;;;5077622;28;20033;-70
2021/04/01 04:40:08;;;;;;;19.70;10.95;;;13.90;60.90;;;;;;5077296;28;20028;-71
2021/04/01 04:42:33;;;;;;;24.80;11.30;;;13.90;60.90;;;;;;5077104;28;20070;-71
2021/04/01 04:44:59;;;;;;;19.27;9.88;;;13.80;60.90;;;;;;5077138;28;20025;-71
2021/04/01 04:47:25;;;;;;;21.17;10.52;;;13.70;61.50;;;;;;5077186;28;20029;-71
2021/04/01 04:49:50;;;;;;;21.98;11.23;;;13.60;62.30;;;;;;5077003;28;20025;-71
2021/04/01 04:52:17;;;;;;;24.50;11.30;;;13.50;63.00;;;;;;5077143;28;20036;-71
2021/04/01 04:54:43;;;;;;;20.25;11.35;;;13.20;64.10;;;;;;5077067;28;20070;-71
2021/04/01 05:05:05;;;;;;;30.02;14.95;;;12.70;67.50;;;;;;5076914;28;20051;-71
2021/04/01 05:07:31;;;;;;;32.55;15.07;;;12.40;68.40;;;;;;5076934;28;20339;-71
2021/04/01 05:09:57;;;;;;;28.42;13.10;;;12.30;69.10;;;;;;5059054;28;20032;-71
2021/04/01 05:12:23;;;;;;;26.77;11.88;;;12.20;69.50;;;;;;5077091;28;20099;-71
2021/04/01 05:14:48;;;;;;;27.63;12.13;;;12.30;69.30;;;;;;5077016;28;20446;-71
2021/04/01 05:17:18;;;;;;;21.00;11.02;;;12.20;69.30;;;;;;5076816;28;20059;-71
2021/04/01 05:19:45;;;;;;;23.55;11.43;;;12.20;69.70;;;;;;5076810;28;20047;-71
2021/04/01 05:22:20;;;;;;;25.42;12.82;;;12.10;69.40;;;;;;5076936;28;20055;-71
2021/04/01 05:24:46;;;;;;;24.40;11.45;;;12.20;69.00;;;;;;5076671;28;20035;-71
2021/04/01 05:27:20;;;;;;;23.00;10.32;;;12.30;69.40;;;;;;5076925;28;20446;-71
2021/04/01 05:30:04;;;;;;;22.35;10.05;;;12.30;69.30;;;;;;5036324;28;20033;-71
2021/04/01 05:32:34;;;;;;;27.80;12.23;;;12.40;68.60;;;;;;5035702;28;20049;-71
2021/04/01 05:35:03;;;;;;;29.38;12.98;;;12.50;68.60;;;;;;5036872;28;20031;-71
2021/04/01 05:37:29;;;;;;;22.08;10.35;;;12.60;68.60;;;;;;5036637;28;20021;-71
2021/04/01 05:39:56;;;;;;;24.45;11.38;;;12.70;68.60;;;;;;5036638;28;20029;-71
2021/04/01 05:42:23;;;;;;;23.20;11.25;;;12.80;66.90;;;;;;5036571;28;20354;-71
2021/04/01 05:44:55;;;;;;;25.92;11.77;;;12.90;67.40;;;;;;5036528;28;20395;-71
2021/04/01 05:47:36;;;;;;;29.60;11.77;;;13.00;67.20;;;;;;5035529;28;20025;-73
2021/04/01 06:05:55;;;;;;;22.63;10.93;;;13.90;64.60;;;;;;5036925;28;19913;-73
2021/04/01 06:08:26;;;;;;;29.95;13.15;;;13.90;65.80;;;;;;5036357;28;20409;-73
2021/04/01 06:10:52;;;;;;;28.30;12.80;;;14.00;64.20;;;;;;5036329;28;20030;-73
2021/04/01 06:13:19;;;;;;;24.83;12.20;;;14.10;63.40;;;;;;5036161;28;20032;-73
2021/04/01 06:15:46;;;;;;;31.55;12.98;;;14.20;62.90;;;;;;5036548;28;20385;-73
2021/04/01 06:18:13;;;;;;;31.20;13.02;;;14.30;61.70;;;;;;5036300;28;20026;-73
2021/04/01 06:20:41;;;;;;;30.70;12.35;;;14.40;61.00;;;;;;5036772;28;20306;-73
2021/04/01 06:23:10;;;;;;;24.27;10.63;;;14.50;62.70;;;;;;5036355;28;20528;-73
2021/04/01 06:25:39;;;;;;;23.70;12.27;;;14.50;62.10;;;;;;5036196;28;20491;-73
2021/04/01 06:28:08;;;;;;;25.60;12.73;;;14.60;60.60;;;;;;5049934;28;20048;-73
2021/04/01 06:30:52;;;;;;;29.25;12.88;;;14.80;59.50;;;;;;5075928;28;20028;-73
2021/04/01 06:33:22;;;;;;;27.92;13.82;;;14.90;59.40;;;;;;5058267;28;20043;-73
2021/04/01 06:36:01;;;;;;;31.17;13.05;;;15.00;60.70;;;;;;5076284;28;20025;-71
2021/04/01 06:38:35;;;;;;;30.48;14.75;;;15.00;61.00;;;;;;5075934;28;20032;-73
2021/04/01 06:41:12;;;;;;;31.60;13.40;;;15.00;60.30;;;;;;5076616;28;20020;-71
2021/04/01 06:43:56;;;;;;;31.90;13.55;;;15.10;59.60;;;;;;5079698;28;20028;-73
2021/04/01 06:46:25;;;;;;;37.35;14.85;;;15.20;59.50;;;;;;5079777;28;20082;-73
2021/04/01 06:54:52;;;;;;;32.67;13.93;;;15.50;60.50;;;;;;5066180;28;20033;-73
2021/04/01 07:03:14;;;;;;;28.77;13.32;;;15.70;59.00;;;;;;5079314;28;20087;-71
2021/04/01 07:05:57;;;;;;;29.05;14.13;;;15.80;59.30;;;;;;5079508;28;20073;-71
2021/04/01 07:08:49;;;;;;;31.40;13.30;;;15.90;58.20;;;;;;5079060;28;20044;-71
2021/04/01 07:11:42;;;;;;;27.75;13.30;;;16.10;57.50;;;;;;5079203;28;20416;-71
2021/04/01 07:14:23;;;;;;;34.78;15.00;;;16.20;57.90;;;;;;5076692;28;20087;-73
2021/04/01 07:16:56;;;;;;;35.25;14.48;;;16.30;56.30;;;;;;5079161;28;20103;-71
2021/04/01 07:23:04;;;;;;;29.52;12.43;;;16.70;56.40;;;;;;4997731;28;20034;-71
2021/04/01 07:47:38;;;;;;;32.53;16.05;;;18.90;52.00;;;;;;5078354;28;20063;-73
2021/04/01 07:50:18;;;;;;;24.25;12.30;;;18.90;51.80;;;;;;5078325;28;20020;-73
2021/04/01 07:52:57;;;;;;;29.40;14.40;;;19.20;52.90;;;;;;5078136;28;20055;-73
2021/04/01 08:05:56;;;;;;;35.25;15.82;;;20.10;51.60;;;;;;5078844;28;20385;-73
2021/04/01 08:08:24;;;;;;;30.80;14.32;;;20.90;49.80;;;;;;5078000;28;20060;-74
2021/04/01 08:11:02;;;;;;;32.00;14.60;;;21.60;47.20;;;;;;5077830;28;20020;-72
2021/04/01 08:13:32;;;;;;;32.20;14.15;;;22.40;46.60;;;;;;5060042;28;20025;-72
2021/04/01 08:16:08;;;;;;;27.48;14.10;;;22.80;45.30;;;;;;5078081;28;20023;-72
2021/04/01 08:18:37;;;;;;;32.90;14.70;;;23.10;45.70;;;;;;5078161;28;20020;-72
2021/04/01 08:21:06;;;;;;;31.70;14.82;;;23.40;44.30;;;;;;5077694;28;20028;-72
2021/04/01 08:23:44;;;;;;;27.27;13.95;;;23.50;43.70;;;;;;5059998;28;20081;-72
2021/04/01 08:36:51;;;;;;;25.63;13.60;;;24.50;42.70;;;;;;5077492;28;20082;-72
2021/04/01 08:39:19;;;;;;;26.35;13.45;;;24.70;43.30;;;;;;5077469;28;20416;-72
2021/04/01 08:42:03;;;;;;;25.17;13.90;;;24.70;43.20;;;;;;5077320;28;20025;-72
2021/04/01 08:45:12;;;;;;;22.65;11.38;;;24.60;42.50;;;;;;5077253;28;20301;-72
2021/04/01 08:47:44;;;;;;;27.00;14.10;;;24.80;43.40;;;;;;5077368;28;20021;-73
2021/04/01 08:50:33;;;;;;;27.42;13.25;;;25.20;42.10;;;;;;5077140;28;20040;-72
2021/04/01 08:52:59;;;;;;;32.72;15.10;;;25.20;41.90;;;;;;5077337;28;20028;-73
2021/04/01 08:55:37;;;;;;;28.70;14.02;;;24.80;42.60;;;;;;5077016;28;20459;-72
2021/04/01 08:58:30;;;;;;;30.73;14.50;;;24.80;41.50;;;;;;5077012;28;20054;-72
2021/04/01 09:01:13;;;;;;;25.77;12.95;;;24.60;42.50;;;;;;5077266;28;20036;-72
2021/04/01 09:03:40;;;;;;;27.33;12.40;;;24.80;43.90;;;;;;5076952;28;20063;-73
2021/04/01 09:06:08;;;;;;;23.70;12.80;;;25.00;42.10;;;;;;5076804;28;20067;-72
2021/04/01 09:08:38;;;;;;;22.27;12.43;;;25.10;42.30;;;;;;5076882;28;20035;-72
2021/04/01 09:11:07;;;;;;;23.80;12.65;;;25.00;41.30;;;;;;5076937;28;20073;-72
2021/04/01 09:13:35;;;;;;;24.95;13.57;;;25.20;41.90;;;;;;5076901;28;20013;-72
2021/04/01 09:16:10;;;;;;;25.58;13.55;;;25.30;42.20;;;;;;5076866;28;20039;-72
2021/04/01 09:18:37;;;;;;;29.15;13.07;;;25.40;42.10;;;;;;5077083;28;20016;-72
2021/04/01 09:21:05;;;;;;;28.55;13.20;;;26.00;42.50;;;;;;5076786;28;20312;-72
2021/04/01 09:23:39;;;;;;;25.23;13.52;;;26.30;41.10;;;;;;5077301;28;20317;-72
2021/04/01 09:26:08;;;;;;;23.83;13.40;;;26.50;42.60;;;;;;5076744;28;20383;-72
2021/04/01 09:28:38;;;;;;;26.38;14.30;;;26.30;41.80;;;;;;5076570;28;20137;-72
2021/04/01 09:31:05;;;;;;;35.30;14.00;;;26.50;40.10;;;;;;5077125;28;20013;-73
2021/04/01 09:33:33;;;;;;;29.20;14.80;;;26.30;41.00;;;;;;5076607;28;20319;-74
2021/04/01 09:36:06;;;;;;;26.70;14.68;;;26.30;41.30;;;;;;5076643;28;20017;-72
2021/04/01 09:38:38;;;;;;;32.30;14.25;;;26.20;42.90;;;;;;5058872;28;20033;-72
2021/04/01 09:41:04;;;;;;;27.10;14.68;;;26.50;40.80;;;;;;5076551;28;20025;-72
2021/04/01 09:43:29;;;;;;;25.95;14.02;;;26.60;39.80;;;;;;5076499;28;20035;-72
2021/04/01 09:45:58;;;;;;;28.05;14.52;;;26.80;40.60;;;;;;5076767;28;20099;-72
2021/04/01 09:48:31;;;;;;;28.75;14.30;;;26.90;40.00;;;;;;5077009;28;20028;-72
2021/04/01 09:51:00;;;;;;;28.77;14.57;;;26.90;40.20;;;;;;5076942;28;20029;-72
2021/04/01 09:53:27;;;;;;;25.90;13.95;;;27.10;41.40;;;;;;5076688;28;20107;-72
2021/04/01 09:55:56;;;;;;;26.08;14.45;;;27.00;40.90;;;;;;5076606;28;20103;-72
2021/04/01 09:58:38;;;;;;;25.83;14.57;;;26.70;40.90;;;;;;5076450;28;20026;-72
2021/04/01 10:04:10;;;;;;;26.58;14.20;;;26.60;41.40;;;;;;5076613;28;20090;-73
2021/04/01 10:06:46;;;;;;;29.38;14.18;;;26.80;40.70;;;;;;5076257;28;20051;-72
2021/04/01 10:09:17;;;;;;;28.80;13.85;;;26.90;41.10;;;;;;5076538;28;20029;-72
2021/04/01 10:12:00;;;;;;;27.67;14.57;;;26.80;40.50;;;;;;5076536;28;20095;-72
2021/04/01 10:14:27;;;;;;;29.95;15.90;;;26.80;42.40;;;;;;5079985;28;20033;-72
2021/04/01 10:17:12;;;;;;;31.92;15.30;;;26.60;41.30;;;;;;5093994;28;20431;-72
2021/04/01 10:19:40;;;;;;;28.00;15.35;;;26.80;42.30;;;;;;5100444;28;20036;-72
2021/04/01 10:22:21;;;;;;;31.40;14.50;;;26.70;42.60;;;;;;5100289;28;20024;-71
2021/04/01 10:24:48;;;;;;;30.95;15.57;;;26.60;41.90;;;;;;5100402;28;20032;-72
2021/04/01 10:27:26;;;;;;;27.98;14.63;;;26.70;41.20;;;;;;5100516;28;20020;-72
2021/04/01 10:32:37;;;;;;;30.85;15.60;;;26.80;41.50;;;;;;5100384;28;20043;-72
2021/04/01 10:35:11;;;;;;;28.20;14.52;;;26.80;42.20;;;;;;5099945;28;20028;-72
2021/04/01 10:37:44;;;;;;;25.52;15.18;;;27.00;41.30;;;;;;5100000;28;20031;-72
2021/04/01 10:40:11;;;;;;;31.25;14.60;;;27.00;39.30;;;;;;5100030;28;20409;-72
2021/04/01 10:42:36;;;;;;;25.02;14.73;;;26.90;41.60;;;;;;5100122;28;20054;-72
2021/04/01 10:45:10;;;;;;;28.02;14.07;;;27.10;42.10;;;;;;5100012;28;20059;-73
2021/04/01 10:47:42;;;;;;;27.67;15.13;;;27.20;40.20;;;;;;5082301;28;20065;-73
2021/04/01 10:50:08;;;;;;;30.85;15.10;;;27.20;40.10;;;;;;5099739;28;20032;-73
2021/04/01 10:52:34;;;;;;;27.10;14.43;;;27.20;42.00;;;;;;5099842;28;20403;-72
2021/04/01 10:55:00;;;;;;;28.30;14.43;;;27.40;41.70;;;;;;5099591;28;20028;-73
2021/04/01 10:57:27;;;;;;;40.28;17.17;;;27.30;41.60;;;;;;5099643;28;20016;-73
2021/04/01 10:59:53;;;;;;;26.30;14.10;;;27.10;39.90;;;;;;5099876;28;20311;-73
2021/04/01 11:02:34;;;;;;;28.77;14.35;;;27.00;40.90;;;;;;5099579;28;20115;-74
2021/04/01 11:05:15;;;;;;;31.23;15.20;;;27.00;41.70;;;;;;5099370;28;20035;-72
2021/04/01 11:07:47;;;;;;;29.35;15.70;;;27.10;40.90;;;;;;5099398;28;20082;-72
2021/04/01 11:10:26;;;;;;;29.00;15.73;;;27.00;41.60;;;;;;5099351;28;20035;-73
2021/04/01 11:12:55;;;;;;;26.77;14.52;;;26.90;41.00;;;;;;5099803;28;20439;-72
2021/04/01 11:15:28;;;;;;;29.08;14.95;;;27.00;42.70;;;;;;5099188;28;20020;-71
2021/04/01 11:18:05;;;;;;;29.60;14.35;;;27.00;41.80;;;;;;5099494;28;20024;-73
2021/04/01 11:20:39;;;;;;;28.75;15.52;;;26.80;41.50;;;;;;5099272;28;20370;-72
2021/04/01 11:23:12;;;;;;;28.30;14.68;;;26.90;40.90;;;;;;5099535;28;20028;-72
2021/04/01 11:25:44;;;;;;;32.95;14.95;;;26.80;43.00;;;;;;5099247;28;20036;-72
2021/04/01 11:28:10;;;;;;;31.35;15.43;;;26.70;40.30;;;;;;5098413;28;20044;-72
2021/04/01 11:30:42;;;;;;;26.95;14.48;;;26.50;42.50;;;;;;5098924;28;20363;-72
2021/04/01 11:33:10;;;;;;;33.10;15.88;;;26.60;43.70;;;;;;5098853;28;20020;-72
2021/04/01 11:35:39;;;;;;;30.98;15.82;;;26.60;42.60;;;;;;5098912;28;20031;-72
2021/04/01 11:38:09;;;;;;;26.90;16.05;;;26.40;42.90;;;;;;5098958;28;20008;-72
2021/04/01 11:40:39;;;;;;;31.77;15.15;;;25.80;43.20;;;;;;5080869;28;20028;-72
2021/04/01 11:43:05;;;;;;;33.72;15.40;;;25.90;44.10;;;;;;5098898;28;20020;-72
2021/04/01 11:45:35;;;;;;;29.13;15.88;;;26.40;44.70;;;;;;5098907;28;20028;-72
2021/04/01 11:48:03;;;;;;;33.25;15.70;;;26.60;42.90;;;;;;5099258;28;20400;-72
2021/04/01 11:50:29;;;;;;;33.28;15.95;;;26.60;43.40;;;;;;5098537;28;20034;-72
2021/04/01 11:53:00;;;;;;;29.42;15.88;;;26.60;42.80;;;;;;5098728;28;20020;-72
2021/04/01 11:55:27;;;;;;;35.80;16.00;;;26.50;42.20;;;;;;5098469;28;20028;-72
2021/04/01 11:57:53;;;;;;;32.22;15.63;;;26.30;41.00;;;;;;5098486;28;20020;-72
2021/04/01 12:03:08;;;;;;;32.80;16.20;;;26.00;42.50;;;;;;5098603;28;20024;-72
2021/04/01 12:05:41;;;;;;;37.70;16.85;;;25.90;46.30;;;;;;5098390;28;20028;-72
2021/04/01 12:08:07;;;;;;;32.58;16.45;;;26.10;42.10;;;;;;5098646;28;20436;-72
2021/04/01 12:10:33;;;;;;;35.95;16.13;;;25.90;43.60;;;;;;5098056;28;20043;-72
2021/04/01 12:13:00;;;;;;;31.15;17.38;;;25.80;44.10;;;;;;5098388;28;20020;-72
2021/04/01 12:15:43;;;;;;;31.75;17.23;;;25.60;42.70;;;;;;5098019;28;20027;-72
2021/04/01 12:18:09;;;;;;;35.67;17.60;;;25.30;42.60;;;;;;5098379;28;20016;-72
2021/04/01 12:20:37;;;;;;;29.17;15.40;;;25.00;43.60;;;;;;5080045;28;20384;-72
2021/04/01 12:23:21;;;;;;;35.63;17.88;;;24.80;45.20;;;;;;5098243;28;20032;-72
2021/04/01 12:25:48;;;;;;;35.63;18.10;;;24.70;44.20;;;;;;5098205;28;20061;-72
2021/04/01 12:28:24;;;;;;;28.92;15.73;;;24.40;44.20;;;;;;5097836;28;20043;-72
2021/04/01 12:30:52;;;;;;;32.78;17.45;;;24.30;45.90;;;;;;5098245;28;20024;-72
2021/04/01 12:33:20;;;;;;;33.28;17.23;;;24.30;45.60;;;;;;5097729;28;20016;-72
2021/04/01 12:36:04;;;;;;;38.00;16.58;;;24.10;46.40;;;;;;5097970;28;20044;-72
2021/04/01 12:38:38;;;;;;;33.08;17.65;;;24.10;46.10;;;;;;5097182;28;20016;-72
2021/04/01 12:41:05;;;;;;;39.28;17.13;;;23.90;46.00;;;;;;5097599;28;20024;-72
2021/04/01 12:43:35;;;;;;;34.45;16.67;;;23.60;45.60;;;;;;5097526;28;20028;-72
2021/04/01 12:46:01;;;;;;;36.83;17.15;;;23.30;49.00;;;;;;5097476;28;20043;-73
2021/04/01 12:48:40;;;;;;;30.60;16.05;;;23.40;47.20;;;;;;5097519;28;20420;-72
2021/04/01 12:51:07;;;;;;;36.00;17.70;;;23.40;48.20;;;;;;5097813;28;20024;-72
2021/04/01 12:53:34;;;;;;;34.00;17.33;;;23.50;46.90;;;;;;5079510;28;20035;-72
2021/04/01 12:56:16;;;;;;;38.85;16.88;;;23.40;44.70;;;;;;5097617;28;20020;-73
2021/04/01 12:58:47;;;;;;;43.13;18.75;;;23.30;47.30;;;;;;5097668;28;20023;-71
2021/04/01 13:03:47;;;;;;;34.83;17.85;;;23.20;49.10;;;;;;5097218;28;20081;-73
2021/04/01 13:06:18;;;;;;;44.60;18.45;;;23.10;48.70;;;;;;5097238;28;20293;-73
2021/04/01 13:11:38;;;;;;;37.38;16.35;;;23.20;48.90;;;;;;5025327;28;20034;-71
2021/04/01 13:14:05;;;;;;;36.08;17.08;;;23.20;49.90;;;;;;5097017;28;20112;-71
2021/04/01 13:16:30;;;;;;;33.53;16.88;;;23.20;47.70;;;;;;5097492;28;20354;-73
2021/04/01 13:18:56;;;;;;;35.55;16.35;;;23.10;48.30;;;;;;5079172;28;20024;-72
2021/04/01 13:24:20;;;;;;;37.55;17.23;;;23.20;48.40;;;;;;5097419;28;20505;-71
2021/04/01 13:26:47;;;;;;;38.22;18.15;;;23.20;47.40;;;;;;5096963;28;20084;-73
2021/04/01 13:29:13;;;;;;;37.08;18.52;;;23.00;47.20;;;;;;5096732;28;20058;-73
2021/04/01 13:31:53;;;;;;;40.20;17.25;;;22.80;48.60;;;;;;5096866;28;20471;-73
2021/04/01 13:34:26;;;;;;;34.65;17.75;;;22.80;48.90;;;;;;5096805;28;20048;-73
2021/04/01 13:39:26;;;;;;;39.00;17.55;;;22.80;47.50;;;;;;5097110;28;20430;-73
2021/04/01 13:44:20;;;;;;;35.42;17.52;;;22.60;47.60;;;;;;5096672;28;20107;-74
2021/04/01 13:46:47;;;;;;;35.42;16.70;;;22.30;48.20;;;;;;5078820;28;20485;-74
2021/04/01 13:49:24;;;;;;;33.50;15.40;;;22.30;48.20;;;;;;5097184;28;20327;-74
2021/04/01 13:51:54;;;;;;;30.58;16.10;;;22.30;52.30;;;;;;5100206;28;20293;-74
2021/04/01 13:57:12;;;;;;;31.17;15.90;;;22.40;46.90;;;;;;5100880;28;20042;-74
2021/04/01 14:00:18;;;;;;;34.17;16.45;;;22.50;47.70;;;;;;5100805;28;20035;-73
2021/04/01 14:11:12;;;;;;;35.22;15.57;;;22.40;48.60;;;;;;5100618;28;20039;-73
2021/04/01 14:13:38;;;;;;;31.90;16.15;;;22.50;50.60;;;;;;5100565;28;20024;-72
2021/04/01 14:16:04;;;;;;;27.65;14.27;;;22.40;49.50;;;;;;5082507;28;20065;-72
2021/04/01 14:18:31;;;;;;;32.05;14.77;;;22.50;50.10;;;;;;5100873;28;20095;-72
2021/04/01 14:21:00;;;;;;;30.42;14.98;;;22.50;50.60;;;;;;5100365;28;20058;-72
2021/04/01 14:23:31;;;;;;;33.75;16.80;;;22.50;49.10;;;;;;5100501;28;20077;-71
2021/04/01 14:26:02;;;;;;;32.95;15.65;;;22.50;47.70;;;;;;5100272;28;20120;-72
2021/04/01 14:28:28;;;;;;;31.65;15.40;;;22.40;48.00;;;;;;5100197;28;20039;-72
2021/04/01 14:30:53;;;;;;;27.10;14.68;;;22.40;48.10;;;;;;5100110;28;20024;-72
2021/04/01 14:33:21;;;;;;;31.52;15.65;;;22.30;48.40;;;;;;5100297;28;20068;-72
2021/04/01 14:35:48;;;;;;;35.67;16.17;;;22.30;48.50;;;;;;5100108;28;20031;-71
2021/04/01 14:38:15;;;;;;;32.05;14.68;;;22.20;50.00;;;;;;5100145;28;20095;-72
2021/04/01 14:43:17;;;;;;;31.15;15.40;;;22.20;49.40;;;;;;5100581;28;20032;-72
2021/04/01 14:45:43;;;;;;;26.88;13.80;;;22.10;49.10;;;;;;5100133;28;20024;-72
2021/04/01 14:48:09;;;;;;;33.85;15.43;;;22.10;49.90;;;;;;5099786;28;20486;-72
2021/04/01 14:50:36;;;;;;;31.48;15.50;;;22.10;50.20;;;;;;5099746;28;20035;-72
2021/04/01 14:53:05;;;;;;;30.48;14.32;;;22.10;49.30;;;;;;5100175;28;20032;-72
2021/04/01 14:55:31;;;;;;;33.30;15.05;;;22.10;48.60;;;;;;5099644;28;20020;-72